createdAt,value
2023-04-08T00:00:58.245Z,7.80
2023-04-08T00:03:25.819Z,7.80
2023-04-08T00:05:53.187Z,7.80
2023-04-08T00:08:20.487Z,7.80
2023-04-08T00:10:47.719Z,7.80
2023-04-08T00:13:15.229Z,7.70
2023-04-08T00:15:42.879Z,7.70
2023-04-08T00:18:10.202Z,7.70
2023-04-08T00:20:37.499Z,7.70
2023-04-08T00:23:04.684Z,7.70
2023-04-08T00:25:31.931Z,7.70
2023-04-08T00:27:59.131Z,7.70
2023-04-08T00:30:27.579Z,7.70
2023-04-08T00:32:55.389Z,7.60
2023-04-08T00:35:22.689Z,7.60
2023-04-08T00:37:50.048Z,7.60
2023-04-08T00:40:17.380Z,7.60
2023-04-08T00:42:44.636Z,7.50
2023-04-08T00:45:12.234Z,7.50
2023-04-08T00:47:39.991Z,7.50
2023-04-08T00:50:13.750Z,7.50
2023-04-08T00:52:41.071Z,7.50
2023-04-08T00:55:08.411Z,7.50
2023-04-08T00:57:36.712Z,7.50
2023-04-08T01:00:06.372Z,7.40
2023-04-08T01:03:10.194Z,7.40
2023-04-08T01:05:46.538Z,7.40
2023-04-08T01:08:16.202Z,7.40
2023-04-08T01:10:48.481Z,7.40
2023-04-08T01:13:19.191Z,7.40
2023-04-08T01:15:47.197Z,7.40
2023-04-08T01:18:16.294Z,7.40
2023-04-08T01:20:44.786Z,7.30
2023-04-08T01:23:29.825Z,7.30
2023-04-08T01:25:57.705Z,7.30
2023-04-08T01:28:29.496Z,7.30
2023-04-08T01:30:59.740Z,7.30
2023-04-08T01:33:29.122Z,7.20
2023-04-08T01:35:58.132Z,7.20
2023-04-08T01:38:26.828Z,7.20
2023-04-08T01:40:56.114Z,7.10
2023-04-08T01:43:24.701Z,7.10
2023-04-08T01:45:54.783Z,7.10
2023-04-08T01:48:22.416Z,7.00
2023-04-08T01:50:51.523Z,7.00
2023-04-08T01:53:18.954Z,7.00
2023-04-08T01:55:47.136Z,6.90
2023-04-08T01:58:22.120Z,6.90
2023-04-08T02:00:51.925Z,6.90
2023-04-08T02:03:20.680Z,6.90
2023-04-08T02:05:48.195Z,6.90
2023-04-08T02:08:15.524Z,6.90
2023-04-08T02:10:42.710Z,6.90
2023-04-08T02:13:09.901Z,6.90
2023-04-08T02:15:41.312Z,6.90
2023-04-08T02:18:26.671Z,6.80
2023-04-08T02:21:11.754Z,6.90
2023-04-08T02:23:41.592Z,6.80
2023-04-08T02:26:15.868Z,6.80
2023-04-08T02:28:43.747Z,6.80
2023-04-08T02:31:15.918Z,6.80
2023-04-08T02:33:44.406Z,6.80
2023-04-08T02:36:14.748Z,6.70
2023-04-08T02:38:42.044Z,6.70
2023-04-08T02:41:09.261Z,6.70
2023-04-08T02:43:36.986Z,6.70
2023-04-08T02:46:04.520Z,6.60
2023-04-08T02:48:31.804Z,6.60
2023-04-08T02:50:58.993Z,6.50
2023-04-08T02:53:26.618Z,6.50
2023-04-08T02:55:53.895Z,6.50
2023-04-08T02:58:21.354Z,6.40
2023-04-08T03:00:48.642Z,6.40
2023-04-08T03:03:16.120Z,6.30
2023-04-08T03:05:43.347Z,6.30
2023-04-08T03:08:10.595Z,6.30
2023-04-08T03:10:37.844Z,6.20
2023-04-08T03:13:05.104Z,6.30
2023-04-08T03:15:32.232Z,6.20
2023-04-08T03:17:59.523Z,6.10
2023-04-08T03:20:27.341Z,6.10
2023-04-08T03:22:54.512Z,6.10
2023-04-08T03:25:21.691Z,6.00
2023-04-08T03:27:49.096Z,6.00
2023-04-08T03:30:16.311Z,6.00
2023-04-08T03:32:43.675Z,6.00
2023-04-08T03:35:10.983Z,5.90
2023-04-08T03:37:38.230Z,5.90
2023-04-08T03:40:05.879Z,5.90
2023-04-08T03:42:33.883Z,5.80
2023-04-08T03:45:01.111Z,5.80
2023-04-08T03:47:28.289Z,5.70
2023-04-08T03:49:55.520Z,5.70
2023-04-08T03:52:22.963Z,5.70
2023-04-08T03:54:50.148Z,5.70
2023-04-08T03:57:17.368Z,5.70
2023-04-08T03:59:44.532Z,5.70
2023-04-08T04:02:11.811Z,5.70
2023-04-08T04:04:39.015Z,5.70
2023-04-08T04:07:06.298Z,5.70
2023-04-08T04:09:33.437Z,5.70
2023-04-08T04:12:00.760Z,5.70
2023-04-08T04:14:28.067Z,5.80
2023-04-08T04:16:55.371Z,5.80
2023-04-08T04:19:22.577Z,5.80
2023-04-08T04:21:49.743Z,5.80
2023-04-08T04:24:16.875Z,5.90
2023-04-08T04:26:44.016Z,6.00
2023-04-08T04:29:11.684Z,6.00
2023-04-08T04:31:39.042Z,6.00
2023-04-08T04:34:06.281Z,6.10
2023-04-08T04:36:33.539Z,6.20
2023-04-08T04:39:00.748Z,6.30
2023-04-08T04:41:27.873Z,6.30
2023-04-08T04:43:55.059Z,6.40
2023-04-08T04:46:22.402Z,6.40
2023-04-08T04:48:49.742Z,6.50
2023-04-08T04:51:17.058Z,6.50
2023-04-08T04:53:44.296Z,6.60
2023-04-08T04:56:11.515Z,6.60
2023-04-08T04:58:38.733Z,6.60
2023-04-08T05:01:06.162Z,6.70
2023-04-08T05:03:33.507Z,6.70
2023-04-08T05:06:00.883Z,6.80
2023-04-08T05:08:28.408Z,6.90
2023-04-08T05:10:56.381Z,6.90
2023-04-08T05:13:23.737Z,7.00
2023-04-08T05:15:51.027Z,7.00
2023-04-08T05:18:18.205Z,7.20
2023-04-08T05:20:45.535Z,7.20
2023-04-08T05:23:13.104Z,7.30
2023-04-08T05:25:40.447Z,7.30
2023-04-08T05:28:07.762Z,7.40
2023-04-08T05:30:35.021Z,7.50
2023-04-08T05:33:02.352Z,7.60
2023-04-08T05:35:29.637Z,7.60
2023-04-08T05:37:56.818Z,7.70
2023-04-08T05:40:24.323Z,7.80
2023-04-08T05:42:51.379Z,7.90
2023-04-08T05:45:18.525Z,7.90
2023-04-08T05:47:45.839Z,8.00
2023-04-08T05:50:12.972Z,8.10
2023-04-08T05:52:47.225Z,8.10
2023-04-08T05:55:14.986Z,8.20
2023-04-08T05:57:42.629Z,8.30
2023-04-08T06:00:10.887Z,8.30
2023-04-08T06:02:38.861Z,8.30
2023-04-08T06:05:06.894Z,8.40
2023-04-08T06:07:34.870Z,8.40
2023-04-08T06:10:02.603Z,8.50
2023-04-08T06:12:30.302Z,8.50
2023-04-08T06:14:58.474Z,8.60
2023-04-08T06:17:25.895Z,8.60
2023-04-08T06:19:53.104Z,8.70
2023-04-08T06:22:20.221Z,8.70
2023-04-08T06:24:48.472Z,8.70
2023-04-08T06:27:16.194Z,8.80
2023-04-08T06:29:43.389Z,8.80
2023-04-08T06:32:11.032Z,8.80
2023-04-08T06:34:38.520Z,8.90
2023-04-08T06:37:06.622Z,9.00
2023-04-08T06:39:33.904Z,9.00
2023-04-08T06:42:00.983Z,9.00
2023-04-08T06:44:28.305Z,9.00
2023-04-08T06:46:56.177Z,9.10
2023-04-08T06:49:23.352Z,9.10
2023-04-08T06:51:50.731Z,9.20
2023-04-08T06:54:17.810Z,9.20
2023-04-08T06:56:45.035Z,9.30
2023-04-08T06:59:12.251Z,9.30
2023-04-08T07:01:39.534Z,9.40
2023-04-08T07:04:06.978Z,9.40
2023-04-08T07:06:34.398Z,9.50
2023-04-08T07:09:01.588Z,9.60
2023-04-08T07:11:28.827Z,9.60
2023-04-08T07:13:56.068Z,9.70
2023-04-08T07:16:23.279Z,9.80
2023-04-08T07:18:52.227Z,9.80
2023-04-08T07:21:19.674Z,9.90
2023-04-08T07:23:47.117Z,10.00
2023-04-08T07:26:14.595Z,10.10
2023-04-08T07:28:42.096Z,10.30
2023-04-08T07:31:18.034Z,10.40
2023-04-08T07:33:46.455Z,10.40
2023-04-08T07:36:14.381Z,10.60
2023-04-08T07:38:41.921Z,10.70
2023-04-08T07:41:09.251Z,10.70
2023-04-08T07:43:37.604Z,10.80
2023-04-08T07:46:05.754Z,10.90
2023-04-08T07:48:33.656Z,10.90
2023-04-08T07:51:11.111Z,11.00
2023-04-08T07:53:39.667Z,11.10
2023-04-08T07:56:14.687Z,11.40
2023-04-08T07:58:42.437Z,11.50
2023-04-08T08:01:23.734Z,11.70
2023-04-08T08:03:53.015Z,11.80
2023-04-08T08:06:21.099Z,12.00
2023-04-08T08:08:48.548Z,12.30
2023-04-08T08:11:16.015Z,12.60
2023-04-08T08:13:43.436Z,12.90
2023-04-08T08:16:12.082Z,13.20
2023-04-08T08:18:40.712Z,13.30
2023-04-08T08:21:08.492Z,13.60
2023-04-08T08:23:35.731Z,13.80
2023-04-08T08:26:04.702Z,13.90
2023-04-08T08:28:32.268Z,14.00
2023-04-08T08:30:59.819Z,14.00
2023-04-08T08:33:27.105Z,14.00
2023-04-08T08:35:54.428Z,14.00
2023-04-08T08:38:21.846Z,14.00
2023-04-08T08:40:55.694Z,14.10
2023-04-08T08:43:24.404Z,14.10
2023-04-08T08:45:51.844Z,14.20
2023-04-08T08:48:19.271Z,14.30
2023-04-08T08:50:46.801Z,14.40
2023-04-08T08:53:14.123Z,14.50
2023-04-08T08:56:02.162Z,14.50
2023-04-08T08:58:28.974Z,14.60
2023-04-08T09:00:56.241Z,14.70
2023-04-08T09:03:26.069Z,14.80
2023-04-08T09:05:58.507Z,14.80
2023-04-08T09:08:30.445Z,14.80
2023-04-08T09:11:18.392Z,14.80
2023-04-08T09:13:46.805Z,14.80
2023-04-08T09:16:18.086Z,14.80
2023-04-08T09:18:47.520Z,14.90
2023-04-08T09:21:17.224Z,14.90
2023-04-08T09:23:50.051Z,15.00
2023-04-08T09:26:19.935Z,15.10
2023-04-08T09:29:24.237Z,15.10
2023-04-08T09:31:59.911Z,15.30
2023-04-08T09:34:29.011Z,15.40
2023-04-08T09:36:56.519Z,15.40
2023-04-08T09:39:24.260Z,15.40
2023-04-08T09:41:53.023Z,15.30
2023-04-08T09:44:26.880Z,15.20
2023-04-08T09:46:56.919Z,15.10
2023-04-08T09:49:51.634Z,15.10
2023-04-08T09:52:24.664Z,15.30
2023-04-08T09:55:09.553Z,15.40
2023-04-08T09:57:55.845Z,15.40
2023-04-08T10:00:34.220Z,15.40
2023-04-08T10:03:19.886Z,15.50
2023-04-08T10:05:48.159Z,15.60
2023-04-08T10:08:15.871Z,15.80
2023-04-08T10:10:44.294Z,15.80
2023-04-08T10:13:12.935Z,15.90
2023-04-08T10:15:43.414Z,16.00
2023-04-08T10:18:10.490Z,16.20
2023-04-08T10:20:37.744Z,16.40
2023-04-08T10:23:13.993Z,16.70
2023-04-08T10:25:46.195Z,16.90
2023-04-08T10:28:19.021Z,17.00
2023-04-08T10:30:56.378Z,17.20
2023-04-08T10:33:25.599Z,17.20
2023-04-08T10:35:59.763Z,17.20
2023-04-08T10:38:27.480Z,17.10
2023-04-08T10:40:55.086Z,17.10
2023-04-08T10:43:22.388Z,17.00
2023-04-08T10:45:52.196Z,17.10
2023-04-08T10:48:29.322Z,17.10
2023-04-08T10:50:58.276Z,17.20
2023-04-08T10:53:34.880Z,17.30
2023-04-08T10:56:17.967Z,17.40
2023-04-08T10:58:53.049Z,17.40
2023-04-08T11:01:20.785Z,17.50
2023-04-08T11:03:48.721Z,17.60
2023-04-08T11:06:17.759Z,17.60
2023-04-08T11:08:45.032Z,17.50
2023-04-08T11:11:12.554Z,17.20
2023-04-08T11:13:52.600Z,16.90
2023-04-08T11:16:21.763Z,16.70
2023-04-08T11:18:50.632Z,16.60
2023-04-08T11:21:18.162Z,16.50
2023-04-08T11:23:45.440Z,16.60
2023-04-08T11:26:13.955Z,16.80
2023-04-08T11:28:41.289Z,17.00
2023-04-08T11:31:09.301Z,17.30
2023-04-08T11:33:36.622Z,17.50
2023-04-08T11:36:04.938Z,17.80
2023-04-08T11:38:32.228Z,17.90
2023-04-08T11:41:00.660Z,17.80
2023-04-08T11:43:28.815Z,17.90
2023-04-08T11:45:56.351Z,18.10
2023-04-08T11:48:24.077Z,18.20
2023-04-08T11:51:05.113Z,18.30
2023-04-08T11:53:32.309Z,18.40
2023-04-08T11:56:16.518Z,18.50
2023-04-08T11:58:43.630Z,18.70
2023-04-08T12:01:10.810Z,18.60
2023-04-08T12:03:38.362Z,18.70
2023-04-08T12:06:07.481Z,19.00
2023-04-08T12:08:34.742Z,19.00
2023-04-08T12:11:16.677Z,19.10
2023-04-08T12:13:50.286Z,19.20
2023-04-08T12:16:18.186Z,19.40
2023-04-08T12:18:45.556Z,19.50
2023-04-08T12:21:13.159Z,19.60
2023-04-08T12:23:40.380Z,19.70
2023-04-08T12:26:08.278Z,19.80
2023-04-08T12:28:36.411Z,19.90
2023-04-08T12:31:04.052Z,20.00
2023-04-08T12:33:31.564Z,19.90
2023-04-08T12:35:59.583Z,19.80
2023-04-08T12:38:27.337Z,19.80
2023-04-08T12:40:55.603Z,19.80
2023-04-08T12:43:23.951Z,19.60
2023-04-08T12:45:52.180Z,19.40
2023-04-08T12:48:20.159Z,19.30
2023-04-08T12:50:47.355Z,19.30
2023-04-08T12:53:14.594Z,19.00
2023-04-08T12:55:43.816Z,18.80
2023-04-08T12:58:11.835Z,18.70
2023-04-08T13:00:39.216Z,18.80
2023-04-08T13:03:07.418Z,19.10
2023-04-08T13:05:43.403Z,19.50
2023-04-08T13:08:15.001Z,19.90
2023-04-08T13:10:43.207Z,20.20
2023-04-08T13:13:10.368Z,20.30
2023-04-08T13:15:38.231Z,20.20
2023-04-08T13:18:05.511Z,19.90
2023-04-08T13:20:33.747Z,19.70
2023-04-08T13:23:01.183Z,19.60
2023-04-08T13:25:28.790Z,19.50
2023-04-08T13:27:56.276Z,19.40
2023-04-08T13:30:23.507Z,19.30
2023-04-08T13:32:50.764Z,19.20
2023-04-08T13:35:17.983Z,19.10
2023-04-08T13:37:45.170Z,19.20
2023-04-08T13:40:12.468Z,19.20
2023-04-08T13:42:39.677Z,19.50
2023-04-08T13:45:08.016Z,20.00
2023-04-08T13:47:37.288Z,20.40
2023-04-08T13:50:06.463Z,20.90
2023-04-08T13:52:33.938Z,21.20
2023-04-08T13:55:01.504Z,21.50
2023-04-08T13:57:28.995Z,21.70
2023-04-08T13:59:56.347Z,21.90
2023-04-08T14:02:23.679Z,22.10
2023-04-08T14:04:51.122Z,22.00
2023-04-08T14:07:19.246Z,21.60
2023-04-08T14:09:46.764Z,21.10
2023-04-08T14:12:13.997Z,20.50
2023-04-08T14:14:41.437Z,19.80
2023-04-08T14:17:08.709Z,19.00
2023-04-08T14:19:36.133Z,18.20
2023-04-08T14:22:03.392Z,17.50
2023-04-08T14:24:30.597Z,16.80
2023-04-08T14:26:58.099Z,16.20
2023-04-08T14:29:26.625Z,15.90
2023-04-08T14:31:54.972Z,15.60
2023-04-08T14:34:22.410Z,15.50
2023-04-08T14:36:49.647Z,15.40
2023-04-08T14:39:16.888Z,15.30
2023-04-08T14:41:44.070Z,15.30
2023-04-08T14:44:11.293Z,15.30
2023-04-08T14:46:38.590Z,15.30
2023-04-08T14:49:07.303Z,15.30
2023-04-08T14:51:34.704Z,15.40
2023-04-08T14:54:02.318Z,15.40
2023-04-08T14:56:29.707Z,15.50
2023-04-08T14:58:56.852Z,15.60
2023-04-08T15:01:24.063Z,15.60
2023-04-08T15:03:51.429Z,15.50
2023-04-08T15:06:21.011Z,15.40
2023-04-08T15:08:48.140Z,15.30
2023-04-08T15:11:15.751Z,15.20
2023-04-08T15:13:44.180Z,15.00
2023-04-08T15:16:11.416Z,14.80
2023-04-08T15:18:38.827Z,14.60
2023-04-08T15:21:05.993Z,14.40
2023-04-08T15:23:33.260Z,14.30
2023-04-08T15:26:00.515Z,14.20
2023-04-08T15:28:28.293Z,14.20
2023-04-08T15:30:55.617Z,14.10
2023-04-08T15:33:22.825Z,14.10
2023-04-08T15:35:50.162Z,13.90
2023-04-08T15:38:17.761Z,13.90
2023-04-08T15:40:47.468Z,13.70
2023-04-08T15:43:15.404Z,13.60
2023-04-08T15:45:44.404Z,13.50
2023-04-08T15:48:14.628Z,13.50
2023-04-08T15:50:42.376Z,13.50
2023-04-08T15:53:09.672Z,13.50
2023-04-08T15:55:42.750Z,13.60
2023-04-08T15:58:09.932Z,13.60
2023-04-08T16:00:37.544Z,13.50
2023-04-08T16:03:08.732Z,13.50
2023-04-08T16:05:36.268Z,13.30
2023-04-08T16:08:04.781Z,13.30
2023-04-08T16:10:32.146Z,13.20
2023-04-08T16:12:59.412Z,13.10
2023-04-08T16:15:26.901Z,13.00
2023-04-08T16:17:54.497Z,13.00
2023-04-08T16:20:21.860Z,12.80
2023-04-08T16:22:50.227Z,12.80
2023-04-08T16:25:17.782Z,12.70
2023-04-08T16:27:45.099Z,12.60
2023-04-08T16:30:12.609Z,12.60
2023-04-08T16:32:40.609Z,12.50
2023-04-08T16:35:08.412Z,12.50
2023-04-08T16:37:35.799Z,12.40
2023-04-08T16:40:03.989Z,12.40
2023-04-08T16:42:31.539Z,12.30
2023-04-08T16:44:59.923Z,12.30
2023-04-08T16:47:27.854Z,12.20
2023-04-08T16:49:55.216Z,12.10
2023-04-08T16:52:22.435Z,12.00
2023-04-08T16:54:49.636Z,11.90
2023-04-08T16:57:16.883Z,11.80
2023-04-08T16:59:44.063Z,11.80
2023-04-08T17:02:11.278Z,11.70
2023-04-08T17:04:38.603Z,11.70
2023-04-08T17:07:05.891Z,11.60
2023-04-08T17:09:33.262Z,11.50
2023-04-08T17:12:01.580Z,11.50
2023-04-08T17:14:28.760Z,11.30
2023-04-08T17:16:56.254Z,11.20
2023-04-08T17:19:23.426Z,11.10
2023-04-08T17:21:50.961Z,11.10
2023-04-08T17:24:18.739Z,11.00
2023-04-08T17:26:46.479Z,11.00
2023-04-08T17:29:13.545Z,10.90
2023-04-08T17:31:41.623Z,10.90
2023-04-08T17:34:08.856Z,10.80
2023-04-08T17:36:36.024Z,10.80
2023-04-08T17:39:03.218Z,10.70
2023-04-08T17:41:39.755Z,10.60
2023-04-08T17:44:07.778Z,10.60
2023-04-08T17:46:34.917Z,10.50
2023-04-08T17:49:02.149Z,10.40
2023-04-08T17:51:30.434Z,10.30
2023-04-08T17:53:57.732Z,10.30
2023-04-08T17:56:25.009Z,10.30
2023-04-08T17:58:52.278Z,10.20
2023-04-08T18:01:19.704Z,10.20
2023-04-08T18:03:47.155Z,10.10
2023-04-08T18:06:14.344Z,10.00
2023-04-08T18:08:41.618Z,9.90
2023-04-08T18:11:09.009Z,9.90
2023-04-08T18:13:36.234Z,9.80
2023-04-08T18:16:03.466Z,9.80
2023-04-08T18:18:30.557Z,9.80
2023-04-08T18:20:57.850Z,9.70
2023-04-08T18:23:25.074Z,9.70
2023-04-08T18:25:52.177Z,9.70
2023-04-08T18:28:19.454Z,9.70
2023-04-08T18:30:51.720Z,9.70
2023-04-08T18:33:19.198Z,9.70
2023-04-08T18:35:47.079Z,9.70
2023-04-08T18:38:14.277Z,9.60
2023-04-08T18:40:42.324Z,9.60
2023-04-08T18:43:09.749Z,9.60
2023-04-08T18:45:36.848Z,9.50
2023-04-08T18:48:03.986Z,9.50
2023-04-08T18:50:31.106Z,9.50
2023-04-08T18:52:58.187Z,9.50
2023-04-08T18:55:25.392Z,9.50
2023-04-08T18:57:52.477Z,9.50
2023-04-08T19:00:19.594Z,9.50
2023-04-08T19:02:46.902Z,9.50
2023-04-08T19:05:14.048Z,9.50
2023-04-08T19:07:41.093Z,9.50
2023-04-08T19:10:08.752Z,9.50
2023-04-08T19:12:35.877Z,9.50
2023-04-08T19:15:04.659Z,9.50
2023-04-08T19:17:31.868Z,9.50
2023-04-08T19:19:59.004Z,9.50
2023-04-08T19:22:26.375Z,9.50
2023-04-08T19:24:55.116Z,9.50
2023-04-08T19:27:22.347Z,9.50
2023-04-08T19:29:50.040Z,9.60
2023-04-08T19:32:17.275Z,9.60
2023-04-08T19:34:44.370Z,9.60
2023-04-08T19:37:11.407Z,9.70
2023-04-08T19:39:38.480Z,9.70
2023-04-08T19:42:05.716Z,9.70
2023-04-08T19:44:32.819Z,9.70
2023-04-08T19:46:59.857Z,9.80
2023-04-08T19:49:27.351Z,9.80
2023-04-08T19:51:54.402Z,9.80
2023-04-08T19:54:21.911Z,9.80
2023-04-08T19:56:49.109Z,9.80
2023-04-08T19:59:16.914Z,9.80
2023-04-08T20:01:44.091Z,9.80
2023-04-08T20:04:11.318Z,9.80
2023-04-08T20:06:38.422Z,9.70
2023-04-08T20:09:05.849Z,9.70
2023-04-08T20:11:34.684Z,9.70
2023-04-08T20:14:03.171Z,9.70
2023-04-08T20:16:30.323Z,9.70
2023-04-08T20:18:57.543Z,9.70
2023-04-08T20:21:24.599Z,9.70
2023-04-08T20:23:52.261Z,9.70
2023-04-08T20:26:19.393Z,9.60
2023-04-08T20:28:46.669Z,9.50
2023-04-08T20:31:14.666Z,9.50
2023-04-08T20:33:45.706Z,9.50
2023-04-08T20:36:14.083Z,9.40
2023-04-08T20:38:42.858Z,9.40
2023-04-08T20:41:10.053Z,9.40
2023-04-08T20:43:37.268Z,9.30
2023-04-08T20:46:04.804Z,9.20
2023-04-08T20:48:33.311Z,9.20
2023-04-08T20:51:00.433Z,9.20
2023-04-08T20:53:27.686Z,9.20
2023-04-08T20:55:54.841Z,9.10
2023-04-08T20:58:21.988Z,9.10
2023-04-08T21:00:49.240Z,9.10
2023-04-08T21:03:17.312Z,9.10
2023-04-08T21:05:44.584Z,9.10
2023-04-08T21:08:11.700Z,9.10
2023-04-08T21:10:38.868Z,9.10
2023-04-08T21:13:06.639Z,9.20
2023-04-08T21:15:33.710Z,9.10
2023-04-08T21:18:00.861Z,9.10
2023-04-08T21:20:28.041Z,9.10
2023-04-08T21:22:55.169Z,9.10
2023-04-08T21:25:22.290Z,9.10
2023-04-08T21:27:49.491Z,9.10
2023-04-08T21:30:18.089Z,9.10
2023-04-08T21:32:45.594Z,9.10
2023-04-08T21:35:12.675Z,9.00
2023-04-08T21:37:39.845Z,9.00
2023-04-08T21:40:09.226Z,9.00
2023-04-08T21:42:36.423Z,9.00
2023-04-08T21:45:03.702Z,8.90
2023-04-08T21:47:32.153Z,8.90
2023-04-08T21:49:59.425Z,8.90
2023-04-08T21:52:26.873Z,8.80
2023-04-08T21:54:53.944Z,8.80
2023-04-08T21:57:21.217Z,8.80
2023-04-08T21:59:48.865Z,8.80
2023-04-08T22:02:16.603Z,8.80
2023-04-08T22:04:44.729Z,8.80
2023-04-08T22:07:12.313Z,8.70
2023-04-08T22:09:39.644Z,8.70
2023-04-08T22:12:06.853Z,8.80
2023-04-08T22:14:33.941Z,8.80
2023-04-08T22:17:01.255Z,8.80
2023-04-08T22:19:28.469Z,8.80
2023-04-08T22:21:55.723Z,8.70
2023-04-08T22:24:22.955Z,8.70
2023-04-08T22:26:50.078Z,8.70
2023-04-08T22:29:17.536Z,8.70
2023-04-08T22:31:44.801Z,8.70
2023-04-08T22:34:12.040Z,8.70
2023-04-08T22:36:39.284Z,8.70
2023-04-08T22:39:06.522Z,8.70
2023-04-08T22:41:33.694Z,8.60
2023-04-08T22:44:01.312Z,8.60
2023-04-08T22:46:28.623Z,8.60
2023-04-08T22:48:55.843Z,8.50
2023-04-08T22:51:23.099Z,8.50
2023-04-08T22:53:50.606Z,8.50
2023-04-08T22:56:17.762Z,8.50
2023-04-08T22:58:45.067Z,8.50
2023-04-08T23:01:17.848Z,8.50
2023-04-08T23:03:45.274Z,8.50
2023-04-08T23:06:12.506Z,8.50
2023-04-08T23:08:39.782Z,8.50
2023-04-08T23:11:07.524Z,8.40
2023-04-08T23:13:35.524Z,8.50
2023-04-08T23:16:03.211Z,8.50
2023-04-08T23:18:30.453Z,8.40
2023-04-08T23:20:58.373Z,8.40
2023-04-08T23:23:26.282Z,8.40
2023-04-08T23:25:55.674Z,8.40
2023-04-08T23:28:23.755Z,8.40
2023-04-08T23:30:51.199Z,8.40
2023-04-08T23:33:18.453Z,8.40
2023-04-08T23:35:45.677Z,8.30
2023-04-08T23:38:13.077Z,8.30
2023-04-08T23:40:40.428Z,8.30
2023-04-08T23:43:07.581Z,8.30
2023-04-08T23:45:34.827Z,8.20
2023-04-08T23:48:02.142Z,8.30
2023-04-08T23:50:29.405Z,8.30
2023-04-08T23:52:56.544Z,8.30
2023-04-08T23:55:23.773Z,8.20
2023-04-08T23:57:53.896Z,8.30
